createdAt,value
2018-07-04T00:00:38.996Z,46.45
2018-07-04T00:03:19.021Z,47.10
2018-07-04T00:05:58.854Z,47.79
2018-07-04T00:08:39.107Z,47.37
2018-07-04T00:11:21.517Z,46.90
2018-07-04T00:14:01.303Z,47.21
2018-07-04T00:16:48.610Z,48.09
2018-07-04T00:19:29.079Z,47.65
2018-07-04T00:22:08.847Z,47.87
2018-07-04T00:24:48.439Z,48.11
2018-07-04T00:27:28.088Z,48.53
2018-07-04T00:30:08.610Z,48.02
2018-07-04T00:32:48.295Z,48.24
2018-07-04T00:35:27.949Z,48.06
2018-07-04T00:38:07.752Z,47.98
2018-07-04T00:40:47.417Z,48.64
2018-07-04T00:43:27.117Z,49.20
2018-07-04T00:46:06.777Z,49.21
2018-07-04T00:48:46.190Z,48.02
2018-07-04T00:51:25.922Z,48.86
2018-07-04T00:54:06.278Z,48.69
2018-07-04T00:56:45.960Z,48.83
2018-07-04T00:59:25.601Z,49.33
2018-07-04T01:02:05.228Z,50.14
2018-07-04T01:04:44.867Z,50.30
2018-07-04T01:07:24.614Z,50.47
2018-07-04T01:10:04.215Z,50.46
2018-07-04T01:12:43.730Z,50.77
2018-07-04T01:15:23.258Z,50.22
2018-07-04T01:18:03.152Z,50.84
2018-07-04T01:20:48.060Z,50.66
2018-07-04T01:23:27.796Z,50.96
2018-07-04T01:26:07.496Z,50.55
2018-07-04T01:28:48.250Z,50.83
2018-07-04T01:31:27.812Z,51.31
2018-07-04T01:34:08.195Z,51.14
2018-07-04T01:36:49.126Z,51.67
2018-07-04T01:39:29.140Z,50.99
2018-07-04T01:42:08.881Z,51.63
2018-07-04T01:44:49.002Z,51.05
2018-07-04T01:47:28.615Z,51.25
2018-07-04T01:50:08.395Z,51.29
2018-07-04T01:52:48.060Z,51.86
2018-07-04T01:55:27.923Z,52.54
2018-07-04T01:58:07.625Z,52.84
2018-07-04T02:00:47.350Z,52.87
2018-07-04T02:03:27.148Z,52.50
2018-07-04T02:06:06.783Z,52.67
2018-07-04T02:08:46.548Z,52.88
2018-07-04T02:11:26.272Z,52.52
2018-07-04T02:14:05.767Z,52.35
2018-07-04T02:16:45.441Z,53.06
2018-07-04T02:19:25.099Z,53.16
2018-07-04T02:22:04.738Z,53.01
2018-07-04T02:24:44.484Z,52.69
2018-07-04T02:27:24.442Z,52.68
2018-07-04T02:30:04.079Z,53.30
2018-07-04T02:32:43.750Z,53.70
2018-07-04T02:35:23.348Z,53.64
2018-07-04T02:38:03.265Z,54.01
2018-07-04T02:40:43.138Z,54.11
2018-07-04T02:43:22.929Z,54.71
2018-07-04T02:46:02.435Z,54.66
2018-07-04T02:48:42.077Z,54.20
2018-07-04T02:51:21.684Z,54.23
2018-07-04T02:54:01.342Z,54.35
2018-07-04T02:56:41.119Z,54.88
2018-07-04T02:59:20.777Z,55.04
2018-07-04T03:02:00.495Z,55.21
2018-07-04T03:04:40.264Z,55.05
2018-07-04T03:07:19.938Z,56.24
2018-07-04T03:09:59.550Z,56.33
2018-07-04T03:12:39.377Z,57.26
2018-07-04T03:15:19.187Z,57.38
2018-07-04T03:17:58.786Z,57.11
2018-07-04T03:20:38.510Z,57.45
2018-07-04T03:23:18.094Z,57.41
2018-07-04T03:25:57.727Z,56.76
2018-07-04T03:28:37.521Z,56.47
2018-07-04T03:31:16.986Z,56.38
2018-07-04T03:33:56.701Z,56.81
2018-07-04T03:36:36.586Z,56.07
2018-07-04T03:39:16.253Z,56.44
2018-07-04T03:41:56.180Z,56.33
2018-07-04T03:44:35.781Z,56.56
2018-07-04T03:47:15.279Z,55.88
2018-07-04T03:49:55.128Z,56.33
2018-07-04T03:52:35.544Z,56.68
2018-07-04T03:55:15.213Z,56.45
2018-07-04T03:57:54.734Z,56.20
2018-07-04T04:00:34.436Z,56.64
2018-07-04T04:03:14.168Z,56.76
2018-07-04T04:05:53.728Z,56.29
2018-07-04T04:08:33.467Z,56.34
2018-07-04T04:11:13.237Z,56.90
2018-07-04T04:13:52.847Z,57.77
2018-07-04T04:16:32.530Z,57.56
2018-07-04T04:19:12.271Z,57.77
2018-07-04T04:21:52.078Z,57.95
2018-07-04T04:24:31.716Z,57.49
2018-07-04T04:27:11.560Z,57.17
2018-07-04T04:29:51.155Z,57.27
2018-07-04T04:32:31.146Z,56.98
2018-07-04T04:35:10.817Z,57.27
2018-07-04T04:37:50.675Z,56.87
2018-07-04T04:40:30.262Z,56.96
2018-07-04T04:43:09.928Z,56.82
2018-07-04T04:45:49.639Z,57.02
2018-07-04T04:48:29.362Z,56.81
2018-07-04T04:51:09.053Z,56.93
2018-07-04T04:53:48.804Z,57.05
2018-07-04T04:56:28.447Z,57.85
2018-07-04T04:59:08.039Z,58.25
2018-07-04T05:01:47.696Z,58.69
2018-07-04T05:04:27.317Z,57.99
2018-07-04T05:07:06.996Z,57.74
2018-07-04T05:09:46.604Z,57.66
2018-07-04T05:12:26.528Z,58.38
2018-07-04T05:15:06.088Z,57.83
2018-07-04T05:17:45.927Z,57.70
2018-07-04T05:20:25.632Z,58.93
2018-07-04T05:23:06.317Z,58.73
2018-07-04T05:25:46.199Z,59.34
2018-07-04T05:28:25.905Z,58.47
2018-07-04T05:31:06.031Z,58.44
2018-07-04T05:33:45.659Z,58.38
2018-07-04T05:36:25.419Z,58.64
2018-07-04T05:39:05.830Z,58.21
2018-07-04T05:41:45.619Z,57.38
2018-07-04T05:44:25.218Z,57.93
2018-07-04T05:47:05.001Z,57.41
2018-07-04T05:49:44.852Z,56.90
2018-07-04T05:52:24.541Z,56.46
2018-07-04T05:55:04.392Z,57.74
2018-07-04T05:57:44.050Z,56.95
2018-07-04T06:00:23.809Z,56.92
2018-07-04T06:03:03.439Z,57.15
2018-07-04T06:05:43.763Z,56.51
2018-07-04T06:08:23.592Z,56.03
2018-07-04T06:11:03.885Z,56.52
2018-07-04T06:13:43.527Z,55.89
2018-07-04T06:16:23.173Z,56.21
2018-07-04T06:19:02.863Z,54.73
2018-07-04T06:21:42.627Z,54.52
2018-07-04T06:24:22.368Z,54.52
2018-07-04T06:27:02.149Z,55.58
2018-07-04T06:29:42.077Z,55.29
2018-07-04T06:32:21.786Z,54.27
2018-07-04T06:35:01.375Z,52.67
2018-07-04T06:37:41.215Z,52.76
2018-07-04T06:40:08.733Z,52.94
2018-07-04T06:42:36.715Z,52.02
2018-07-04T06:45:04.452Z,52.13
2018-07-04T06:47:32.104Z,52.38
2018-07-04T06:49:59.442Z,52.12
2018-07-04T06:52:26.718Z,51.78
2018-07-04T06:54:54.039Z,51.19
2018-07-04T06:57:21.549Z,51.58
2018-07-04T06:59:49.468Z,49.59
2018-07-04T07:02:17.986Z,50.35
2018-07-04T07:04:58.649Z,49.98
2018-07-04T07:07:38.421Z,48.95
2018-07-04T07:10:18.196Z,48.46
2018-07-04T07:12:57.739Z,48.51
2018-07-04T07:15:37.728Z,48.19
2018-07-04T07:18:17.433Z,48.12
2018-07-04T07:20:57.137Z,48.56
2018-07-04T07:23:37.476Z,49.54
2018-07-04T07:26:17.221Z,48.14
2018-07-04T07:28:56.902Z,48.04
2018-07-04T07:31:36.570Z,48.05
2018-07-04T07:34:16.322Z,48.23
2018-07-04T07:36:55.833Z,47.09
2018-07-04T07:39:35.539Z,46.94
2018-07-04T07:42:15.200Z,46.83
2018-07-04T07:44:55.298Z,45.25
2018-07-04T07:47:35.258Z,45.75
2018-07-04T07:50:15.086Z,45.75
2018-07-04T07:52:54.957Z,45.72
2018-07-04T07:55:34.716Z,44.61
2018-07-04T07:58:14.386Z,45.92
2018-07-04T08:00:54.038Z,47.59
2018-07-04T08:03:33.861Z,47.04
2018-07-04T08:06:13.569Z,47.61
2018-07-04T08:08:53.356Z,47.23
2018-07-04T08:11:33.298Z,46.67
2018-07-04T08:14:13.138Z,46.82
2018-07-04T08:16:52.822Z,45.15
2018-07-04T08:19:32.630Z,45.56
2018-07-04T08:22:12.743Z,46.23
2018-07-04T08:24:52.973Z,45.29
2018-07-04T08:27:32.664Z,45.67
2018-07-04T08:30:12.566Z,45.51
2018-07-04T08:32:52.864Z,46.20
2018-07-04T08:35:32.609Z,45.35
2018-07-04T08:38:12.322Z,45.04
2018-07-04T08:42:21.085Z,44.27
2018-07-04T08:45:01.038Z,45.08
2018-07-04T08:47:40.945Z,44.28
2018-07-04T08:50:20.582Z,44.49
2018-07-04T08:53:00.287Z,43.28
2018-07-04T08:55:40.074Z,42.88
2018-07-04T08:58:19.644Z,43.31
2018-07-04T09:00:59.486Z,42.20
2018-07-04T09:03:39.169Z,42.88
2018-07-04T09:06:18.808Z,42.16
2018-07-04T09:08:58.419Z,41.77
2018-07-04T09:11:38.287Z,42.33
2018-07-04T09:14:18.091Z,41.24
2018-07-04T09:16:57.768Z,41.34
2018-07-04T09:19:37.539Z,41.14
2018-07-04T09:22:17.317Z,40.84
2018-07-04T09:24:57.081Z,39.66
2018-07-04T09:27:36.841Z,39.42
2018-07-04T09:30:16.699Z,39.49
2018-07-04T09:32:56.363Z,38.17
2018-07-04T09:35:36.237Z,37.71
2018-07-04T09:38:16.347Z,37.95
2018-07-04T09:40:56.144Z,37.30
2018-07-04T09:43:36.002Z,37.87
2018-07-04T09:46:16.390Z,37.12
2018-07-04T09:48:56.982Z,37.00
2018-07-04T09:51:36.909Z,38.27
2018-07-04T09:54:16.610Z,37.23
2018-07-04T09:56:56.521Z,36.28
2018-07-04T09:59:36.260Z,36.57
2018-07-04T10:02:16.301Z,35.97
2018-07-04T10:04:56.003Z,35.29
2018-07-04T10:07:35.859Z,35.31
2018-07-04T10:10:15.662Z,34.57
2018-07-04T10:12:55.389Z,35.14
2018-07-04T10:15:35.225Z,34.53
2018-07-04T10:18:15.135Z,35.06
2018-07-04T10:20:55.849Z,34.00
2018-07-04T10:23:35.596Z,33.58
2018-07-04T10:26:15.758Z,33.24
2018-07-04T10:28:55.539Z,33.72
2018-07-04T10:31:35.267Z,34.29
2018-07-04T10:34:15.130Z,33.62
2018-07-04T10:36:55.373Z,33.77
2018-07-04T10:39:35.036Z,32.70
2018-07-04T10:42:14.660Z,33.74
2018-07-04T10:44:54.531Z,33.84
2018-07-04T10:47:33.987Z,33.32
2018-07-04T10:50:14.240Z,33.12
2018-07-04T10:52:54.061Z,33.55
2018-07-04T10:55:33.832Z,33.13
2018-07-04T10:58:13.442Z,32.58
2018-07-04T11:00:53.187Z,31.75
2018-07-04T11:03:33.130Z,32.51
2018-07-04T11:06:12.822Z,32.88
2018-07-04T11:08:52.664Z,33.77
2018-07-04T11:11:34.296Z,32.93
2018-07-04T11:14:13.978Z,33.36
2018-07-04T11:16:54.468Z,31.91
2018-07-04T11:19:35.385Z,32.69
2018-07-04T11:22:15.117Z,32.82
2018-07-04T11:24:54.956Z,30.88
2018-07-04T11:27:34.583Z,31.20
2018-07-04T11:30:14.338Z,31.54
2018-07-04T11:32:54.137Z,31.17
2018-07-04T11:35:33.702Z,30.96
2018-07-04T11:38:13.274Z,31.11
2018-07-04T11:40:53.041Z,31.25
2018-07-04T11:43:32.661Z,31.52
2018-07-04T11:46:01.001Z,31.99
2018-07-04T11:48:28.559Z,32.10
2018-07-04T11:50:56.257Z,32.13
2018-07-04T11:53:23.606Z,32.07
2018-07-04T11:55:50.850Z,31.34
2018-07-04T11:58:18.120Z,31.61
2018-07-04T12:00:45.883Z,31.49
2018-07-04T12:03:14.868Z,31.42
2018-07-04T12:05:55.229Z,31.46
2018-07-04T12:08:22.655Z,32.20
2018-07-04T12:10:50.491Z,31.80
2018-07-04T12:13:19.238Z,31.60
2018-07-04T12:15:47.890Z,30.97
2018-07-04T12:18:15.849Z,31.30
2018-07-04T12:20:44.115Z,31.00
2018-07-04T12:23:12.067Z,31.29
2018-07-04T12:25:40.188Z,31.02
2018-07-04T12:28:08.796Z,31.22
2018-07-04T12:30:36.377Z,30.03
2018-07-04T12:33:04.012Z,30.36
2018-07-04T12:35:31.398Z,29.91
2018-07-04T12:37:58.729Z,30.84
2018-07-04T12:40:26.010Z,29.66
2018-07-04T12:42:53.272Z,29.98
2018-07-04T12:45:20.570Z,29.96
2018-07-04T12:47:47.859Z,30.02
2018-07-04T12:50:30.826Z,29.80
2018-07-04T12:52:58.166Z,29.09
2018-07-04T12:55:39.050Z,29.47
2018-07-04T12:58:19.616Z,29.46
2018-07-04T13:00:59.213Z,29.78
2018-07-04T13:03:38.803Z,29.15
2018-07-04T13:06:18.458Z,30.70
2018-07-04T13:08:58.015Z,29.16
2018-07-04T13:11:37.816Z,29.47
2018-07-04T13:14:17.447Z,29.92
2018-07-04T13:16:58.054Z,29.54
2018-07-04T13:19:37.955Z,29.33
2018-07-04T13:22:17.781Z,30.88
2018-07-04T13:24:57.598Z,30.43
2018-07-04T13:27:37.532Z,30.66
2018-07-04T13:30:17.359Z,29.14
2018-07-04T13:32:56.920Z,29.76
2018-07-04T13:35:36.491Z,29.31
2018-07-04T13:38:16.207Z,28.82
2018-07-04T13:40:55.931Z,29.64
2018-07-04T13:43:37.128Z,30.02
2018-07-04T13:46:18.998Z,29.91
2018-07-04T13:48:59.212Z,29.01
2018-07-04T13:51:39.034Z,29.08
2018-07-04T13:54:18.873Z,29.70
2018-07-04T13:56:58.605Z,30.88
2018-07-04T13:59:38.458Z,29.50
2018-07-04T14:02:18.329Z,29.49
2018-07-04T14:04:59.012Z,29.34
2018-07-04T14:07:38.663Z,28.87
2018-07-04T14:10:18.462Z,29.73
2018-07-04T14:12:58.024Z,29.56
2018-07-04T14:15:37.703Z,29.35
2018-07-04T14:18:17.488Z,29.17
2018-07-04T14:23:43.535Z,28.50
2018-07-04T14:26:23.244Z,28.32
2018-07-04T14:29:02.839Z,28.63
2018-07-04T14:31:42.653Z,29.11
2018-07-04T14:34:22.231Z,29.02
2018-07-04T14:37:02.050Z,28.53
2018-07-04T14:39:41.893Z,29.28
2018-07-04T14:42:21.767Z,27.93
2018-07-04T14:45:01.371Z,29.66
2018-07-04T14:47:41.248Z,28.27
2018-07-04T14:50:21.094Z,28.91
2018-07-04T14:53:00.961Z,28.87
2018-07-04T14:55:40.725Z,29.07
2018-07-04T14:58:20.518Z,28.88
2018-07-04T15:01:00.277Z,29.06
2018-07-04T15:03:39.852Z,29.77
2018-07-04T15:06:19.407Z,29.47
2018-07-04T15:08:59.090Z,29.89
2018-07-04T15:11:39.571Z,30.86
2018-07-04T15:14:19.205Z,31.28
2018-07-04T15:16:59.294Z,30.92
2018-07-04T15:19:39.091Z,30.49
2018-07-04T15:22:19.941Z,30.78
2018-07-04T15:24:59.545Z,30.53
2018-07-04T15:27:39.771Z,31.11
2018-07-04T15:30:19.646Z,30.56
2018-07-04T15:33:00.991Z,30.44
2018-07-04T15:35:40.619Z,30.61
2018-07-04T15:38:20.365Z,30.87
2018-07-04T15:40:59.971Z,30.76
2018-07-04T15:43:39.635Z,30.61
2018-07-04T15:46:19.322Z,29.61
2018-07-04T15:48:58.999Z,29.29
2018-07-04T15:51:38.944Z,28.28
2018-07-04T15:54:18.545Z,29.07
2018-07-04T15:56:58.374Z,28.69
2018-07-04T15:59:41.911Z,29.46
2018-07-04T16:02:21.822Z,28.57
2018-07-04T16:05:01.514Z,28.12
2018-07-04T16:07:41.186Z,28.87
2018-07-04T16:10:20.894Z,27.44
2018-07-04T16:13:01.263Z,27.99
2018-07-04T16:15:40.699Z,28.57
2018-07-04T16:18:20.274Z,28.14
2018-07-04T16:21:00.056Z,28.50
2018-07-04T16:23:39.808Z,27.57
2018-07-04T16:26:19.506Z,27.97
2018-07-04T16:28:59.338Z,28.84
2018-07-04T16:31:39.120Z,27.84
2018-07-04T16:34:18.754Z,28.18
2018-07-04T16:36:58.305Z,28.30
2018-07-04T16:39:37.901Z,29.14
2018-07-04T16:42:17.623Z,29.27
2018-07-04T16:44:58.043Z,30.16
2018-07-04T16:47:37.741Z,30.63
2018-07-04T16:50:17.506Z,30.51
2018-07-04T16:52:57.510Z,30.56
2018-07-04T16:55:37.196Z,30.62
2018-07-04T16:58:17.835Z,30.79
2018-07-04T17:00:57.565Z,30.30
2018-07-04T17:03:37.308Z,31.59
2018-07-04T17:06:16.981Z,30.82
2018-07-04T17:08:56.689Z,30.41
2018-07-04T17:11:36.426Z,30.32
2018-07-04T17:14:16.078Z,30.82
2018-07-04T17:16:55.782Z,30.17
2018-07-04T17:19:35.511Z,30.37
2018-07-04T17:22:15.782Z,29.93
2018-07-04T17:24:55.437Z,29.61
2018-07-04T17:27:36.048Z,30.14
2018-07-04T17:30:15.678Z,29.81
2018-07-04T17:32:55.670Z,29.74
2018-07-04T17:35:35.419Z,30.29
2018-07-04T17:38:15.053Z,30.10
2018-07-04T17:40:54.881Z,30.13
2018-07-04T17:43:34.506Z,30.18
2018-07-04T17:46:15.576Z,30.46
2018-07-04T17:48:55.742Z,29.89
2018-07-04T17:51:35.671Z,30.83
2018-07-04T17:54:15.521Z,30.70
2018-07-04T17:56:55.086Z,31.00
2018-07-04T17:59:34.861Z,30.72
2018-07-04T18:02:14.952Z,31.12
2018-07-04T18:04:54.731Z,31.66
2018-07-04T18:07:34.531Z,31.09
2018-07-04T18:10:14.078Z,31.41
2018-07-04T18:12:53.817Z,31.03
2018-07-04T18:15:33.435Z,30.69
2018-07-04T18:18:13.146Z,31.24
2018-07-04T18:20:53.067Z,31.00
2018-07-04T18:23:32.901Z,31.48
2018-07-04T18:26:12.782Z,30.74
2018-07-04T18:28:52.888Z,31.61
2018-07-04T18:31:32.567Z,31.63
2018-07-04T18:34:12.224Z,31.55
2018-07-04T18:36:52.392Z,32.34
2018-07-04T18:39:31.868Z,32.65
2018-07-04T18:42:11.730Z,31.92
2018-07-04T18:44:51.414Z,32.34
2018-07-04T18:47:31.605Z,32.22
2018-07-04T18:50:11.329Z,32.67
2018-07-04T18:52:51.441Z,32.87
2018-07-04T18:55:31.109Z,33.89
2018-07-04T18:58:11.076Z,34.19
2018-07-04T19:00:51.000Z,33.26
2018-07-04T19:03:31.220Z,33.17
2018-07-04T19:06:10.985Z,33.38
2018-07-04T19:08:50.693Z,34.81
2018-07-04T19:11:30.298Z,33.78
2018-07-04T19:14:09.872Z,33.91
2018-07-04T19:16:49.591Z,33.48
2018-07-04T19:19:29.268Z,33.95
2018-07-04T19:22:08.910Z,34.04
2018-07-04T19:24:48.684Z,34.65
2018-07-04T19:27:28.362Z,34.16
2018-07-04T19:30:08.378Z,33.80
2018-07-04T19:32:48.088Z,34.25
2018-07-04T19:35:27.981Z,33.05
2018-07-04T19:38:07.726Z,33.82
2018-07-04T19:40:47.584Z,34.17
2018-07-04T19:43:27.392Z,33.76
2018-07-04T19:46:07.141Z,35.16
2018-07-04T19:48:47.374Z,35.30
2018-07-04T19:51:27.071Z,35.06
2018-07-04T19:54:06.742Z,34.14
2018-07-04T19:56:46.431Z,34.66
2018-07-04T19:59:26.348Z,35.24
2018-07-04T20:02:05.939Z,35.15
2018-07-04T20:04:45.698Z,35.39
2018-07-04T20:07:25.362Z,34.47
2018-07-04T20:10:04.994Z,34.79
2018-07-04T20:12:44.871Z,35.34
2018-07-04T20:15:24.492Z,35.46
2018-07-04T20:18:04.223Z,35.04
2018-07-04T20:20:44.616Z,35.28
2018-07-04T20:23:24.373Z,35.33
2018-07-04T20:26:04.386Z,34.88
2018-07-04T20:28:44.308Z,35.96
2018-07-04T20:31:24.146Z,35.94
2018-07-04T20:34:03.947Z,36.32
2018-07-04T20:36:44.381Z,35.27
2018-07-04T20:39:24.161Z,35.62
2018-07-04T20:42:03.746Z,36.67
2018-07-04T20:44:43.413Z,36.02
2018-07-04T20:47:23.371Z,37.04
2018-07-04T20:50:03.120Z,36.13
2018-07-04T20:52:42.802Z,36.32
2018-07-04T20:55:22.458Z,36.69
2018-07-04T20:58:02.161Z,37.23
2018-07-04T21:00:42.514Z,37.30
2018-07-04T21:03:22.138Z,37.37
2018-07-04T21:06:02.853Z,37.91
2018-07-04T21:08:42.610Z,37.12
2018-07-04T21:11:22.196Z,37.42
2018-07-04T21:14:02.172Z,37.55
2018-07-04T21:16:42.387Z,37.91
2018-07-04T21:19:22.092Z,38.24
2018-07-04T21:22:02.432Z,38.01
2018-07-04T21:24:42.254Z,37.64
2018-07-04T21:27:22.245Z,38.51
2018-07-04T21:30:02.492Z,37.78
2018-07-04T21:32:42.218Z,38.93
2018-07-04T21:35:21.836Z,38.48
2018-07-04T21:38:01.728Z,38.17
2018-07-04T21:40:41.813Z,38.95
2018-07-04T21:43:21.397Z,39.13
2018-07-04T21:46:01.113Z,38.25
2018-07-04T21:48:40.781Z,39.18
2018-07-04T21:51:20.591Z,39.71
2018-07-04T21:54:00.240Z,39.86
2018-07-04T21:56:40.035Z,38.83
2018-07-04T21:59:19.896Z,38.57
2018-07-04T22:01:59.671Z,39.47
2018-07-04T22:04:39.309Z,38.93
2018-07-04T22:07:18.999Z,38.77
2018-07-04T22:09:59.574Z,38.91
2018-07-04T22:12:39.362Z,38.76
2018-07-04T22:15:19.148Z,39.44
2018-07-04T22:17:58.860Z,39.70
2018-07-04T22:20:38.499Z,40.16
2018-07-04T22:23:18.119Z,39.07
2018-07-04T22:25:57.836Z,39.53
2018-07-04T22:28:37.479Z,39.58
2018-07-04T22:31:17.157Z,40.23
2018-07-04T22:33:56.833Z,39.94
2018-07-04T22:36:36.594Z,39.95
2018-07-04T22:39:16.867Z,40.46
2018-07-04T22:41:56.680Z,39.86
2018-07-04T22:44:36.377Z,39.41
2018-07-04T22:47:15.975Z,40.70
2018-07-04T22:49:55.610Z,40.55
2018-07-04T22:52:35.411Z,40.39
2018-07-04T22:55:15.160Z,40.48
2018-07-04T22:57:55.006Z,40.80
2018-07-04T23:00:34.772Z,40.97
2018-07-04T23:03:14.618Z,40.58
2018-07-04T23:05:54.416Z,41.40
2018-07-04T23:08:33.987Z,40.89
2018-07-04T23:11:13.795Z,40.58
2018-07-04T23:13:53.497Z,41.53
2018-07-04T23:16:33.275Z,41.26
2018-07-04T23:19:13.005Z,41.91
2018-07-04T23:21:52.701Z,41.25
2018-07-04T23:24:32.716Z,41.87
2018-07-04T23:27:12.562Z,42.49
2018-07-04T23:29:52.251Z,42.44
2018-07-04T23:32:31.977Z,42.77
2018-07-04T23:35:11.968Z,42.64
2018-07-04T23:37:51.638Z,42.98
2018-07-04T23:40:31.288Z,42.86
2018-07-04T23:43:11.057Z,42.86
2018-07-04T23:45:50.807Z,42.58
2018-07-04T23:48:30.494Z,43.64
2018-07-04T23:51:10.297Z,44.20
2018-07-04T23:53:49.972Z,44.23
2018-07-04T23:56:29.656Z,44.75
2018-07-04T23:59:10.004Z,44.46
